createdAt,value
2023-03-07T00:00:13.248Z,11.39
2023-03-07T00:10:24.326Z,11.25
2023-03-07T00:13:58.290Z,11.17
2023-03-07T00:17:22.102Z,11.12
2023-03-07T00:20:59.141Z,11.07
2023-03-07T00:26:45.547Z,10.99
2023-03-07T00:29:16.449Z,10.97
2023-03-07T00:32:03.753Z,10.93
2023-03-07T00:35:32.567Z,10.91
2023-03-07T00:38:00.682Z,10.82
2023-03-07T00:41:24.019Z,10.81
2023-03-07T00:44:45.872Z,10.77
2023-03-07T00:47:51.664Z,10.71
2023-03-07T00:54:04.028Z,10.56
2023-03-07T00:57:15.820Z,10.51
2023-03-07T01:00:06.651Z,10.49
2023-03-07T01:03:25.082Z,10.44
2023-03-07T01:06:49.115Z,10.33
2023-03-07T01:13:37.351Z,10.25
2023-03-07T01:16:47.348Z,10.16
2023-03-07T01:20:09.799Z,10.15
2023-03-07T01:23:10.833Z,10.13
2023-03-07T01:26:07.346Z,10.08
2023-03-07T01:28:55.258Z,10.06
2023-03-07T01:31:53.504Z,10.06
2023-03-07T01:34:50.059Z,10.05
2023-03-07T01:41:16.125Z,9.98
2023-03-07T01:44:33.127Z,9.94
2023-03-07T01:55:14.801Z,9.80
2023-03-07T02:01:45.972Z,9.74
2023-03-07T02:08:32.983Z,9.72
2023-03-07T02:11:27.683Z,9.71
2023-03-07T02:13:54.813Z,9.66
2023-03-07T02:16:21.962Z,9.69
2023-03-07T02:18:50.731Z,9.68
2023-03-07T02:21:40.501Z,9.64
2023-03-07T02:24:32.689Z,9.62
2023-03-07T02:26:59.720Z,9.58
2023-03-07T02:29:26.735Z,9.56
2023-03-07T02:31:54.025Z,9.51
2023-03-07T02:34:29.529Z,9.48
2023-03-07T02:37:33.323Z,9.45
2023-03-07T02:40:07.267Z,9.45
2023-03-07T02:42:37.714Z,9.41
2023-03-07T02:45:15.505Z,9.38
2023-03-07T02:47:45.758Z,9.39
2023-03-07T02:50:16.576Z,9.37
2023-03-07T02:52:46.781Z,9.33
2023-03-07T02:55:13.825Z,9.33
2023-03-07T02:57:47.213Z,9.30
2023-03-07T03:00:14.886Z,9.29
2023-03-07T03:02:42.496Z,9.29
2023-03-07T03:05:09.687Z,9.19
2023-03-07T03:07:36.621Z,9.14
2023-03-07T03:10:04.542Z,9.12
2023-03-07T03:12:32.799Z,9.06
2023-03-07T03:15:00.118Z,9.04
2023-03-07T03:17:27.171Z,9.05
2023-03-07T03:19:54.131Z,9.04
2023-03-07T03:22:21.555Z,8.96
2023-03-07T03:24:51.001Z,8.97
2023-03-07T03:27:19.545Z,8.98
2023-03-07T03:29:49.442Z,8.97
2023-03-07T03:32:16.981Z,8.99
2023-03-07T03:34:45.203Z,8.97
2023-03-07T03:37:13.148Z,8.96
2023-03-07T03:39:40.936Z,8.99
2023-03-07T03:42:08.914Z,9.01
2023-03-07T03:44:35.817Z,8.99
2023-03-07T03:47:02.825Z,9.02
2023-03-07T03:49:29.956Z,8.99
2023-03-07T03:51:56.960Z,8.97
2023-03-07T03:54:24.270Z,8.96
2023-03-07T03:56:51.250Z,8.94
2023-03-07T03:59:18.157Z,8.89
2023-03-07T04:01:46.479Z,8.87
2023-03-07T04:04:13.576Z,8.86
2023-03-07T04:06:40.528Z,8.85
2023-03-07T04:09:07.499Z,8.84
2023-03-07T04:11:36.762Z,8.84
2023-03-07T04:14:04.105Z,8.81
2023-03-07T04:16:31.301Z,8.79
2023-03-07T04:18:59.285Z,8.79
2023-03-07T04:21:26.354Z,8.78
2023-03-07T04:23:58.735Z,8.77
2023-03-07T04:26:30.782Z,8.76
2023-03-07T04:28:57.752Z,8.72
2023-03-07T04:31:31.391Z,8.72
2023-03-07T04:34:01.035Z,8.68
2023-03-07T04:36:28.621Z,8.69
2023-03-07T04:38:55.625Z,8.63
2023-03-07T04:41:26.769Z,8.60
2023-03-07T04:44:21.246Z,8.55
2023-03-07T04:46:48.811Z,8.51
2023-03-07T04:49:16.643Z,8.49
2023-03-07T04:51:44.178Z,8.45
2023-03-07T04:54:13.553Z,8.43
2023-03-07T04:56:41.364Z,8.36
2023-03-07T04:59:10.354Z,8.39
2023-03-07T05:01:37.545Z,8.36
2023-03-07T05:04:05.401Z,8.35
2023-03-07T05:06:32.571Z,8.33
2023-03-07T05:08:59.709Z,8.27
2023-03-07T05:11:27.064Z,8.23
2023-03-07T05:13:54.116Z,8.18
2023-03-07T05:16:22.797Z,8.17
2023-03-07T05:18:50.181Z,8.15
2023-03-07T05:21:20.132Z,8.14
2023-03-07T05:23:47.848Z,8.10
2023-03-07T05:26:14.751Z,8.14
2023-03-07T05:28:44.944Z,8.16
2023-03-07T05:31:13.431Z,8.14
2023-03-07T05:33:42.903Z,8.19
2023-03-07T05:36:10.569Z,8.20
2023-03-07T05:38:38.002Z,8.23
2023-03-07T05:41:05.259Z,8.19
2023-03-07T05:43:32.426Z,8.16
2023-03-07T05:46:02.598Z,8.15
2023-03-07T05:48:30.776Z,8.16
2023-03-07T05:51:03.083Z,8.14
2023-03-07T05:53:30.987Z,8.11
2023-03-07T05:55:58.580Z,8.02
2023-03-07T05:58:25.920Z,8.00
2023-03-07T06:00:55.229Z,8.00
2023-03-07T06:03:23.094Z,7.94
2023-03-07T06:05:50.886Z,7.93
2023-03-07T06:08:18.181Z,7.89
2023-03-07T06:10:51.289Z,7.85
2023-03-07T06:13:24.417Z,7.87
2023-03-07T06:15:55.208Z,7.89
2023-03-07T06:18:25.861Z,7.87
2023-03-07T06:21:04.421Z,7.92
2023-03-07T06:23:37.275Z,8.07
2023-03-07T06:26:10.477Z,8.20
2023-03-07T06:28:38.140Z,8.52
2023-03-07T06:31:13.058Z,8.93
2023-03-07T06:33:41.120Z,9.34
2023-03-07T06:36:10.041Z,9.78
2023-03-07T06:38:38.761Z,10.24
2023-03-07T06:41:06.721Z,10.77
2023-03-07T06:43:34.129Z,11.22
2023-03-07T06:46:01.825Z,11.58
2023-03-07T06:48:35.018Z,12.15
2023-03-07T06:51:08.707Z,12.67
2023-03-07T06:53:37.207Z,13.07
2023-03-07T06:56:04.860Z,13.80
2023-03-07T06:58:33.506Z,14.32
2023-03-07T07:01:01.055Z,14.86
2023-03-07T07:03:28.808Z,15.41
2023-03-07T07:05:55.777Z,15.59
2023-03-07T07:08:25.085Z,15.85
2023-03-07T07:10:52.488Z,16.11
2023-03-07T07:13:19.625Z,16.44
2023-03-07T07:15:46.676Z,16.66
2023-03-07T07:18:14.255Z,17.00
2023-03-07T07:20:43.407Z,17.49
2023-03-07T07:23:10.644Z,17.78
2023-03-07T07:25:40.832Z,18.24
2023-03-07T07:28:07.800Z,18.62
2023-03-07T07:30:34.833Z,19.07
2023-03-07T07:33:01.929Z,19.60
2023-03-07T07:35:29.538Z,20.03
2023-03-07T07:37:56.713Z,20.54
2023-03-07T07:40:23.680Z,20.88
2023-03-07T07:42:54.836Z,21.25
2023-03-07T07:45:44.198Z,21.77
2023-03-07T07:48:15.137Z,22.31
2023-03-07T07:50:42.399Z,22.72
2023-03-07T07:53:09.303Z,23.14
2023-03-07T07:55:36.464Z,23.65
2023-03-07T07:58:03.548Z,24.07
2023-03-07T08:00:32.010Z,24.45
2023-03-07T08:02:59.855Z,24.92
2023-03-07T08:05:27.070Z,25.24
2023-03-07T08:07:56.972Z,25.59
2023-03-07T08:10:24.264Z,25.53
2023-03-07T08:12:51.836Z,25.77
2023-03-07T08:15:21.651Z,26.27
2023-03-07T08:17:50.597Z,26.88
2023-03-07T08:20:22.636Z,27.11
2023-03-07T08:22:50.704Z,27.60
2023-03-07T08:25:23.852Z,27.54
2023-03-07T08:27:55.389Z,27.75
2023-03-07T08:30:27.315Z,28.40
2023-03-07T08:32:55.766Z,28.77
2023-03-07T08:35:25.407Z,29.19
2023-03-07T08:37:56.796Z,29.66
2023-03-07T08:40:25.162Z,30.04
2023-03-07T08:42:52.405Z,30.63
2023-03-07T08:45:21.324Z,30.88
2023-03-07T08:47:52.619Z,31.14
2023-03-07T08:50:21.243Z,31.37
2023-03-07T08:52:48.322Z,31.81
2023-03-07T08:55:16.922Z,32.39
2023-03-07T08:57:47.950Z,32.82
2023-03-07T09:00:15.361Z,33.20
2023-03-07T09:02:42.522Z,33.50
2023-03-07T09:05:10.443Z,33.80
2023-03-07T09:07:37.434Z,34.08
2023-03-07T09:10:06.043Z,34.25
2023-03-07T09:12:34.572Z,34.67
2023-03-07T09:15:01.630Z,34.51
2023-03-07T09:17:28.728Z,34.50
2023-03-07T09:19:56.663Z,34.88
2023-03-07T09:22:23.566Z,35.34
2023-03-07T09:24:50.883Z,35.44
2023-03-07T09:27:19.118Z,35.58
2023-03-07T09:32:43.109Z,35.70
2023-03-07T09:35:10.487Z,35.50
2023-03-07T09:37:37.645Z,35.32
2023-03-07T09:40:08.031Z,35.57
2023-03-07T09:42:59.357Z,35.65
2023-03-07T09:45:48.838Z,35.39
2023-03-07T09:49:04.961Z,34.65
2023-03-07T09:51:46.777Z,34.43
2023-03-07T09:54:41.327Z,34.31
2023-03-07T09:57:18.204Z,34.14
2023-03-07T09:59:47.469Z,34.46
2023-03-07T10:02:26.361Z,34.30
2023-03-07T10:05:05.542Z,33.93
2023-03-07T10:07:33.142Z,32.88
2023-03-07T10:10:03.753Z,32.22
2023-03-07T10:13:11.897Z,31.62
2023-03-07T10:15:49.093Z,31.10
2023-03-07T10:18:40.153Z,29.67
2023-03-07T10:21:48.639Z,30.06
2023-03-07T10:24:53.302Z,29.90
2023-03-07T10:27:26.252Z,28.73
2023-03-07T10:29:55.902Z,28.78
2023-03-07T10:32:41.431Z,29.03
2023-03-07T10:35:11.381Z,29.90
2023-03-07T10:37:51.857Z,31.03
2023-03-07T10:40:42.391Z,31.90
2023-03-07T10:43:23.239Z,31.29
2023-03-07T10:45:53.212Z,31.46
2023-03-07T10:48:21.738Z,31.87
2023-03-07T10:50:56.963Z,31.74
2023-03-07T10:53:30.828Z,31.75
2023-03-07T10:56:27.286Z,31.75
2023-03-07T10:59:03.303Z,32.28
2023-03-07T11:01:32.759Z,32.60
2023-03-07T11:04:02.628Z,32.76
2023-03-07T11:06:39.848Z,33.16
2023-03-07T11:09:30.023Z,33.63
2023-03-07T11:11:58.311Z,33.74
2023-03-07T11:14:29.490Z,33.84
2023-03-07T11:17:02.883Z,33.55
2023-03-07T11:19:35.085Z,32.55
2023-03-07T11:22:19.280Z,31.88
2023-03-07T11:25:15.903Z,32.31
2023-03-07T11:27:45.743Z,32.47
2023-03-07T11:30:22.478Z,32.64
2023-03-07T11:32:59.383Z,30.87
2023-03-07T11:35:59.292Z,30.20
2023-03-07T11:38:58.411Z,29.59
2023-03-07T11:41:32.485Z,28.13
2023-03-07T11:44:28.411Z,27.45
2023-03-07T11:46:58.126Z,26.98
2023-03-07T11:49:31.586Z,26.80
2023-03-07T11:52:35.975Z,26.56
2023-03-07T11:55:37.006Z,26.00
2023-03-07T11:58:36.295Z,25.83
2023-03-07T12:01:55.607Z,25.47
2023-03-07T12:04:22.530Z,25.03
2023-03-07T12:07:22.733Z,24.16
2023-03-07T12:09:52.745Z,23.60
2023-03-07T12:12:25.937Z,23.48
2023-03-07T12:15:08.043Z,23.38
2023-03-07T12:18:13.450Z,23.37
2023-03-07T12:20:47.470Z,23.52
2023-03-07T12:23:38.189Z,23.59
2023-03-07T12:26:39.913Z,23.43
2023-03-07T12:29:17.445Z,23.45
2023-03-07T12:31:50.910Z,23.18
2023-03-07T12:34:26.430Z,23.08
2023-03-07T12:37:10.904Z,22.82
2023-03-07T12:39:43.975Z,22.66
2023-03-07T12:42:19.697Z,22.63
2023-03-07T12:44:51.265Z,22.78
2023-03-07T12:47:46.800Z,23.01
2023-03-07T12:50:24.157Z,23.12
2023-03-07T12:53:12.742Z,23.26
2023-03-07T12:55:46.742Z,23.11
2023-03-07T12:58:16.371Z,23.25
2023-03-07T13:00:59.638Z,23.11
2023-03-07T13:03:37.848Z,23.22
2023-03-07T13:06:10.182Z,23.25
2023-03-07T13:08:38.009Z,23.26
2023-03-07T13:11:05.368Z,23.28
2023-03-07T13:13:41.518Z,23.28
2023-03-07T13:16:12.866Z,23.33
2023-03-07T13:18:40.058Z,23.36
2023-03-07T13:21:33.015Z,23.37
2023-03-07T13:24:36.235Z,23.41
2023-03-07T13:27:42.188Z,23.24
2023-03-07T13:30:12.232Z,23.17
2023-03-07T13:32:51.146Z,23.14
2023-03-07T13:35:39.419Z,22.97
2023-03-07T13:38:15.467Z,23.00
2023-03-07T13:40:46.517Z,22.97
2023-03-07T13:43:19.551Z,22.95
2023-03-07T13:46:28.199Z,22.99
2023-03-07T13:48:55.179Z,22.99
2023-03-07T13:51:22.294Z,23.10
2023-03-07T13:54:02.699Z,23.02
2023-03-07T13:56:35.702Z,22.94
2023-03-07T13:59:06.875Z,22.96
2023-03-07T14:01:47.149Z,22.95
2023-03-07T14:04:42.327Z,22.94
2023-03-07T14:07:22.091Z,22.92
2023-03-07T14:10:21.929Z,22.89
2023-03-07T14:13:09.501Z,22.88
2023-03-07T14:15:57.783Z,22.86
2023-03-07T14:18:33.781Z,22.78
2023-03-07T14:21:15.033Z,22.77
2023-03-07T14:24:13.417Z,22.76
2023-03-07T14:26:48.805Z,22.80
2023-03-07T14:29:24.845Z,22.81
2023-03-07T14:31:58.266Z,22.85
2023-03-07T14:34:32.317Z,22.68
2023-03-07T14:37:07.034Z,22.70
2023-03-07T14:39:43.145Z,22.67
2023-03-07T14:42:26.309Z,22.52
2023-03-07T14:45:06.206Z,22.51
2023-03-07T14:47:42.157Z,22.48
2023-03-07T14:50:16.804Z,22.48
2023-03-07T14:52:45.150Z,22.47
2023-03-07T14:55:21.144Z,22.43
2023-03-07T14:57:53.592Z,22.45
2023-03-07T15:00:26.081Z,22.44
2023-03-07T15:03:08.151Z,22.43
2023-03-07T15:05:36.715Z,22.41
2023-03-07T15:08:04.360Z,22.46
2023-03-07T15:10:43.996Z,22.46
2023-03-07T15:13:36.319Z,22.42
2023-03-07T15:16:09.190Z,22.42
2023-03-07T15:18:41.841Z,22.38
2023-03-07T15:21:17.923Z,22.37
2023-03-07T15:23:57.787Z,22.38
2023-03-07T15:26:26.682Z,22.31
2023-03-07T15:29:09.136Z,22.25
2023-03-07T15:31:50.709Z,22.24
2023-03-07T15:34:40.807Z,22.15
2023-03-07T15:37:28.791Z,22.11
2023-03-07T15:40:08.081Z,22.06
2023-03-07T15:42:52.904Z,21.95
2023-03-07T15:45:40.953Z,21.89
2023-03-07T15:48:12.678Z,21.85
2023-03-07T15:50:39.700Z,21.80
2023-03-07T15:53:09.485Z,21.82
2023-03-07T15:55:39.148Z,21.77
2023-03-07T15:58:14.005Z,21.73
2023-03-07T16:00:42.459Z,21.61
2023-03-07T16:03:25.110Z,21.53
2023-03-07T16:05:53.190Z,21.50
2023-03-07T16:08:20.272Z,21.54
2023-03-07T16:10:56.366Z,21.48
2023-03-07T16:13:28.179Z,21.44
2023-03-07T16:16:04.334Z,21.41
2023-03-07T16:18:31.859Z,21.36
2023-03-07T16:20:58.928Z,21.28
2023-03-07T16:23:28.871Z,21.28
2023-03-07T16:25:56.771Z,21.22
2023-03-07T16:28:23.917Z,21.19
2023-03-07T16:30:51.033Z,21.21
2023-03-07T16:33:18.040Z,21.21
2023-03-07T16:35:45.467Z,21.17
2023-03-07T16:38:12.623Z,21.18
2023-03-07T16:40:45.076Z,21.19
2023-03-07T16:43:31.729Z,21.03
2023-03-07T16:46:01.531Z,21.05
2023-03-07T16:48:28.613Z,20.99
2023-03-07T16:50:55.477Z,21.03
2023-03-07T16:53:22.500Z,20.89
2023-03-07T16:55:49.512Z,20.89
2023-03-07T16:58:29.672Z,20.86
2023-03-07T17:00:59.019Z,20.83
2023-03-07T17:03:27.553Z,20.84
2023-03-07T17:05:54.862Z,20.80
2023-03-07T17:08:21.728Z,20.77
2023-03-07T17:10:49.146Z,20.71
2023-03-07T17:13:18.477Z,20.65
2023-03-07T17:15:47.130Z,20.56
2023-03-07T17:18:14.167Z,20.51
2023-03-07T17:20:41.797Z,20.48
2023-03-07T17:23:08.674Z,20.37
2023-03-07T17:25:35.705Z,20.36
2023-03-07T17:28:14.941Z,20.32
2023-03-07T17:30:45.128Z,20.21
2023-03-07T17:33:12.684Z,20.18
2023-03-07T17:35:39.559Z,20.10
2023-03-07T17:38:06.584Z,20.00
2023-03-07T17:40:33.862Z,19.95
2023-03-07T17:43:00.842Z,19.87
2023-03-07T17:45:27.835Z,19.83
2023-03-07T17:47:55.066Z,19.76
2023-03-07T17:50:26.021Z,19.72
2023-03-07T17:52:56.128Z,19.71
2023-03-07T17:55:25.238Z,19.69
2023-03-07T17:57:52.390Z,19.64
2023-03-07T18:00:20.999Z,19.58
2023-03-07T18:02:48.577Z,19.59
2023-03-07T18:05:15.692Z,19.51
2023-03-07T18:07:42.671Z,19.52
2023-03-07T18:10:10.899Z,19.47
2023-03-07T18:12:39.367Z,19.45
2023-03-07T18:15:08.569Z,19.43
2023-03-07T18:17:46.877Z,19.43
2023-03-07T18:20:14.598Z,19.32
2023-03-07T18:22:42.212Z,19.32
2023-03-07T18:25:12.654Z,19.33
2023-03-07T18:27:39.762Z,19.26
2023-03-07T18:30:07.276Z,19.26
2023-03-07T18:32:34.506Z,19.26
2023-03-07T18:35:01.862Z,19.24
2023-03-07T18:37:28.958Z,19.23
2023-03-07T18:39:56.065Z,19.18
2023-03-07T18:42:23.105Z,19.19
2023-03-07T18:44:49.962Z,19.20
2023-03-07T18:47:17.204Z,19.16
2023-03-07T18:49:44.594Z,19.17
2023-03-07T18:52:11.458Z,19.16
2023-03-07T18:54:38.513Z,19.09
2023-03-07T18:57:05.497Z,19.07
2023-03-07T18:59:32.350Z,19.06
2023-03-07T19:02:03.369Z,19.06
2023-03-07T19:04:31.561Z,18.95
2023-03-07T19:06:59.779Z,18.97
2023-03-07T19:09:27.116Z,18.98
2023-03-07T19:11:54.041Z,18.96
2023-03-07T19:14:21.193Z,18.96
2023-03-07T19:16:48.604Z,18.90
2023-03-07T19:19:16.175Z,18.91
2023-03-07T19:21:46.509Z,18.88
2023-03-07T19:24:16.103Z,18.88
2023-03-07T19:26:43.522Z,18.83
2023-03-07T19:29:13.257Z,18.84
2023-03-07T19:31:43.850Z,18.80
2023-03-07T19:34:11.101Z,18.79
2023-03-07T19:36:41.322Z,18.71
2023-03-07T19:39:20.456Z,18.72
2023-03-07T19:41:50.548Z,18.72
2023-03-07T19:44:18.208Z,18.73
2023-03-07T19:46:48.305Z,18.75
2023-03-07T19:49:16.358Z,18.65
2023-03-07T19:51:43.413Z,18.67
2023-03-07T19:54:14.156Z,18.67
2023-03-07T19:56:42.761Z,18.65
2023-03-07T19:59:10.130Z,18.61
2023-03-07T20:01:37.096Z,18.59
2023-03-07T20:04:04.942Z,18.54
2023-03-07T20:06:33.218Z,18.58
2023-03-07T20:09:00.856Z,18.55
2023-03-07T20:11:35.097Z,18.48
2023-03-07T20:14:05.067Z,18.44
2023-03-07T20:16:33.796Z,18.36
2023-03-07T20:19:04.182Z,18.17
2023-03-07T20:21:33.099Z,18.01
2023-03-07T20:24:00.717Z,17.85
2023-03-07T20:26:31.837Z,17.82
2023-03-07T20:29:00.384Z,17.65
2023-03-07T20:31:27.832Z,17.33
2023-03-07T20:33:55.205Z,17.30
2023-03-07T20:36:28.760Z,17.18
2023-03-07T20:38:58.841Z,17.06
2023-03-07T20:41:29.149Z,16.97
2023-03-07T20:44:04.948Z,16.82
2023-03-07T20:46:33.289Z,16.67
2023-03-07T20:49:02.164Z,16.47
2023-03-07T20:51:32.030Z,16.30
2023-03-07T20:54:13.991Z,16.10
2023-03-07T20:56:48.482Z,16.15
2023-03-07T20:59:18.147Z,16.22
2023-03-07T21:01:45.659Z,16.20
2023-03-07T21:04:15.417Z,16.08
2023-03-07T21:06:43.905Z,16.07
2023-03-07T21:09:12.870Z,16.04
2023-03-07T21:11:42.750Z,15.89
2023-03-07T21:14:09.810Z,15.92
2023-03-07T21:16:37.057Z,15.79
2023-03-07T21:19:06.184Z,15.80
2023-03-07T21:21:34.645Z,15.78
2023-03-07T21:24:02.405Z,15.69
2023-03-07T21:26:32.322Z,15.73
2023-03-07T21:29:31.466Z,15.74
2023-03-07T21:31:58.539Z,15.73
2023-03-07T21:34:27.170Z,15.65
2023-03-07T21:36:56.419Z,15.70
2023-03-07T21:39:25.070Z,15.64
2023-03-07T21:41:52.377Z,15.57
2023-03-07T21:44:19.559Z,15.60
2023-03-07T21:46:46.558Z,15.53
2023-03-07T21:49:13.780Z,15.55
2023-03-07T21:51:41.475Z,15.50
2023-03-07T21:54:08.463Z,15.57
2023-03-07T21:56:35.559Z,15.54
2023-03-07T21:59:02.659Z,15.40
2023-03-07T22:01:30.126Z,15.41
2023-03-07T22:04:03.702Z,15.44
2023-03-07T22:06:31.126Z,15.37
2023-03-07T22:09:07.585Z,15.32
2023-03-07T22:11:34.615Z,15.28
2023-03-07T22:14:01.567Z,15.28
2023-03-07T22:16:28.630Z,15.26
2023-03-07T22:18:56.673Z,15.20
2023-03-07T22:21:26.466Z,15.17
2023-03-07T22:24:01.332Z,15.22
2023-03-07T22:26:30.627Z,15.24
2023-03-07T22:28:58.400Z,15.29
2023-03-07T22:31:27.257Z,15.24
2023-03-07T22:33:54.368Z,15.25
2023-03-07T22:36:21.557Z,15.24
2023-03-07T22:38:54.385Z,15.25
2023-03-07T22:41:22.095Z,15.20
2023-03-07T22:43:49.032Z,15.12
2023-03-07T22:46:16.057Z,15.08
2023-03-07T22:48:43.059Z,15.20
2023-03-07T22:51:18.185Z,15.13
2023-03-07T22:53:45.815Z,15.08
2023-03-07T22:56:30.101Z,15.16
2023-03-07T22:58:57.611Z,15.14
2023-03-07T23:01:27.216Z,15.20
2023-03-07T23:03:55.703Z,15.25
2023-03-07T23:06:24.740Z,15.28
2023-03-07T23:08:53.579Z,15.30
2023-03-07T23:11:22.958Z,15.22
2023-03-07T23:13:50.222Z,15.17
2023-03-07T23:16:22.112Z,15.19
2023-03-07T23:18:50.917Z,15.14
2023-03-07T23:21:20.899Z,15.16
2023-03-07T23:23:48.163Z,15.17
2023-03-07T23:26:27.679Z,15.21
2023-03-07T23:28:55.294Z,15.22
2023-03-07T23:31:33.853Z,15.20
2023-03-07T23:34:05.994Z,15.16
2023-03-07T23:36:33.757Z,15.18
2023-03-07T23:39:10.655Z,15.23
2023-03-07T23:41:38.108Z,15.31
2023-03-07T23:44:05.558Z,15.33
2023-03-07T23:46:32.918Z,15.31
2023-03-07T23:48:59.858Z,15.31
2023-03-07T23:51:27.217Z,15.32
2023-03-07T23:53:54.216Z,15.32
2023-03-07T23:56:21.455Z,15.33
2023-03-07T23:58:53.823Z,15.35
